createdAt,value
2022-12-12T00:00:30.549Z,98128.50
2022-12-12T00:02:59.978Z,98135.09
2022-12-12T00:05:36.172Z,98128.50
2022-12-12T00:08:05.341Z,98133.59
2022-12-12T00:10:34.773Z,98121.41
2022-12-12T00:13:05.431Z,98132.03
2022-12-12T00:15:34.376Z,98123.66
2022-12-12T00:18:03.229Z,98122.84
2022-12-12T00:20:32.341Z,98123.75
2022-12-12T00:23:01.056Z,98125.28
2022-12-12T00:25:30.132Z,98118.16
2022-12-12T00:28:00.091Z,98114.34
2022-12-12T00:30:30.308Z,98115.25
2022-12-12T00:32:59.192Z,98113.53
2022-12-12T00:35:28.994Z,98111.88
2022-12-12T00:37:57.915Z,98114.44
2022-12-12T00:40:26.720Z,98121.41
2022-12-12T00:42:55.538Z,98122.13
2022-12-12T00:45:24.416Z,98119.94
2022-12-12T00:47:54.679Z,98117.78
2022-12-12T00:50:23.566Z,98120.22
2022-12-12T00:52:52.486Z,98118.41
2022-12-12T00:55:21.651Z,98128.56
2022-12-12T00:57:50.426Z,98125.50
2022-12-12T01:00:20.512Z,98126.50
2022-12-12T01:02:50.157Z,98129.50
2022-12-12T01:05:20.624Z,98127.78
2022-12-12T01:07:59.891Z,98129.50
2022-12-12T01:10:28.892Z,98133.31
2022-12-12T01:12:57.712Z,98131.59
2022-12-12T01:15:26.970Z,98134.66
2022-12-12T01:17:55.760Z,98131.69
2022-12-12T01:20:28.893Z,98137.22
2022-12-12T01:22:57.933Z,98134.94
2022-12-12T01:25:26.955Z,98136.94
2022-12-12T01:27:55.706Z,98138.56
2022-12-12T01:30:25.020Z,98131.41
2022-12-12T01:32:55.164Z,98131.47
2022-12-12T01:35:26.427Z,98130.78
2022-12-12T01:37:55.419Z,98141.38
2022-12-12T01:40:28.068Z,98137.13
2022-12-12T01:42:57.398Z,98138.75
2022-12-12T01:46:33.948Z,98135.94
2022-12-12T01:49:13.039Z,98138.84
2022-12-12T01:51:45.266Z,98138.19
2022-12-12T01:54:21.083Z,98133.75
2022-12-12T01:56:52.702Z,98136.47
2022-12-12T01:59:25.834Z,98138.28
2022-12-12T02:01:56.088Z,98142.91
2022-12-12T02:04:25.402Z,98139.28
2022-12-12T02:06:57.487Z,98130.41
2022-12-12T02:09:27.157Z,98139.63
2022-12-12T02:11:58.526Z,98134.28
2022-12-12T02:14:33.683Z,98132.56
2022-12-12T02:17:30.669Z,98129.28
2022-12-12T02:20:42.728Z,98126.91
2022-12-12T02:23:54.742Z,98137.63
2022-12-12T02:27:04.126Z,98133.84
2022-12-12T02:30:22.595Z,98134.47
2022-12-12T02:33:28.149Z,98136.28
2022-12-12T02:36:15.015Z,98139.09
2022-12-12T02:38:57.573Z,98130.72
2022-12-12T02:41:36.129Z,98134.59
2022-12-12T02:44:27.696Z,98136.59
2022-12-12T02:47:09.259Z,98137.22
2022-12-12T02:49:47.567Z,98132.25
2022-12-12T02:52:18.805Z,98130.00
2022-12-12T02:59:27.136Z,98135.69
2022-12-12T03:03:14.395Z,98135.81
2022-12-12T03:06:22.081Z,98134.06
2022-12-12T03:09:06.232Z,98144.69
2022-12-12T03:11:51.938Z,98135.47
2022-12-12T03:14:29.140Z,98138.19
2022-12-12T03:17:10.969Z,98135.91
2022-12-12T03:19:47.337Z,98129.94
2022-12-12T03:22:28.737Z,98128.41
2022-12-12T03:25:05.911Z,98130.41
2022-12-12T03:27:42.227Z,98130.56
2022-12-12T03:30:16.902Z,98128.41
2022-12-12T03:33:32.940Z,98130.56
2022-12-12T03:36:11.541Z,98129.63
2022-12-12T03:38:57.017Z,98129.56
2022-12-12T03:41:33.047Z,98125.28
2022-12-12T03:44:30.287Z,98111.81
2022-12-12T03:47:07.319Z,98121.13
2022-12-12T03:49:45.990Z,98123.94
2022-12-12T03:52:27.642Z,98123.56
2022-12-12T03:55:05.713Z,98122.22
2022-12-12T03:57:42.722Z,98130.41
2022-12-12T04:00:15.342Z,98125.94
2022-12-12T04:02:56.330Z,98128.84
2022-12-12T04:05:33.973Z,98129.50
2022-12-12T04:08:09.187Z,98132.75
2022-12-12T04:11:03.938Z,98130.41
2022-12-12T04:13:40.499Z,98134.03
2022-12-12T04:16:13.501Z,98134.47
2022-12-12T04:18:53.899Z,98138.00
2022-12-12T04:21:52.996Z,98135.09
2022-12-12T04:24:35.313Z,98133.47
2022-12-12T04:27:12.505Z,98132.41
2022-12-12T04:29:49.665Z,98140.38
2022-12-12T04:32:26.749Z,98128.06
2022-12-12T04:35:01.111Z,98130.97
2022-12-12T04:37:36.183Z,98136.94
2022-12-12T04:40:10.750Z,98135.03
2022-12-12T04:42:48.423Z,98139.91
2022-12-12T04:45:22.915Z,98134.31
2022-12-12T04:47:55.648Z,98142.91
2022-12-12T04:50:31.244Z,98140.91
2022-12-12T04:53:03.302Z,98146.25
2022-12-12T04:55:37.203Z,98152.03
2022-12-12T04:58:08.634Z,98152.69
2022-12-12T05:00:53.379Z,98149.41
2022-12-12T05:03:31.718Z,98147.16
2022-12-12T05:06:10.744Z,98149.84
2022-12-12T05:08:44.124Z,98158.00
2022-12-12T05:11:14.471Z,98155.38
2022-12-12T05:13:45.212Z,98153.03
2022-12-12T05:16:22.942Z,98155.66
2022-12-12T05:18:51.903Z,98161.91
2022-12-12T05:21:22.143Z,98163.91
2022-12-12T05:23:51.010Z,98171.25
2022-12-12T05:26:25.857Z,98171.09
2022-12-12T05:29:03.679Z,98158.66
2022-12-12T05:31:36.310Z,98170.84
2022-12-12T05:34:06.348Z,98170.59
2022-12-12T05:36:36.152Z,98166.25
2022-12-12T05:39:05.210Z,98173.16
2022-12-12T05:41:34.031Z,98170.34
2022-12-12T05:44:04.673Z,98171.63
2022-12-12T05:46:33.837Z,98169.16
2022-12-12T05:49:02.630Z,98178.31
2022-12-12T05:51:31.498Z,98176.34
2022-12-12T05:54:00.309Z,98178.50
2022-12-12T05:56:29.247Z,98178.97
2022-12-12T05:58:58.031Z,98175.69
2022-12-12T06:01:31.382Z,98170.50
2022-12-12T06:04:00.148Z,98180.03
2022-12-12T06:06:29.003Z,98178.03
2022-12-12T06:08:58.016Z,98180.94
2022-12-12T06:11:26.977Z,98178.50
2022-12-12T06:13:55.819Z,98185.66
2022-12-12T06:16:24.676Z,98180.94
2022-12-12T06:18:56.998Z,98193.34
2022-12-12T06:21:25.955Z,98189.81
2022-12-12T06:23:58.239Z,98199.03
2022-12-12T06:26:27.029Z,98201.75
2022-12-12T06:28:57.226Z,98202.22
2022-12-12T06:31:26.981Z,98204.38
2022-12-12T06:33:59.336Z,98206.09
2022-12-12T06:36:28.162Z,98209.22
2022-12-12T06:39:01.693Z,98208.41
2022-12-12T06:41:33.376Z,98210.03
2022-12-12T06:44:02.163Z,98215.97
2022-12-12T06:46:31.581Z,98218.09
2022-12-12T06:49:03.124Z,98211.34
2022-12-12T06:51:33.490Z,98220.09
2022-12-12T06:54:02.226Z,98228.13
2022-12-12T06:56:56.716Z,98224.09
2022-12-12T06:59:25.532Z,98224.75
2022-12-12T07:01:57.284Z,98216.22
2022-12-12T07:04:27.772Z,98227.38
2022-12-12T07:06:56.664Z,98215.66
2022-12-12T07:09:25.554Z,98220.25
2022-12-12T07:11:54.411Z,98220.44
2022-12-12T07:14:23.126Z,98223.25
2022-12-12T07:16:52.048Z,98226.91
2022-12-12T07:19:20.872Z,98229.19
2022-12-12T07:21:51.045Z,98242.03
2022-12-12T07:24:19.787Z,98241.34
2022-12-12T07:26:48.565Z,98247.88
2022-12-12T07:29:17.332Z,98253.47
2022-12-12T07:31:46.189Z,98241.00
2022-12-12T07:34:17.147Z,98251.13
2022-12-12T07:36:45.962Z,98249.50
2022-12-12T07:39:20.607Z,98256.75
2022-12-12T07:41:49.638Z,98257.38
2022-12-12T07:44:23.015Z,98261.75
2022-12-12T07:46:51.865Z,98258.31
2022-12-12T07:49:20.699Z,98261.41
2022-12-12T07:51:49.678Z,98262.94
2022-12-12T07:54:19.882Z,98262.84
2022-12-12T07:56:48.731Z,98270.03
2022-12-12T07:59:17.523Z,98265.38
2022-12-12T08:01:46.408Z,98268.75
2022-12-12T08:04:15.207Z,98268.13
2022-12-12T08:06:44.050Z,98272.03
2022-12-12T08:09:12.805Z,98275.38
2022-12-12T08:11:46.253Z,98269.66
2022-12-12T08:14:16.234Z,98274.91
2022-12-12T08:16:45.041Z,98274.97
2022-12-12T08:19:13.924Z,98270.00
2022-12-12T08:21:43.507Z,98266.56
2022-12-12T08:24:16.325Z,98276.06
2022-12-12T08:26:46.847Z,98277.69
2022-12-12T08:29:15.611Z,98280.66
2022-12-12T08:31:44.567Z,98279.94
2022-12-12T08:34:14.022Z,98284.84
2022-12-12T08:36:43.786Z,98293.38
2022-12-12T08:39:16.267Z,98289.63
2022-12-12T08:41:48.533Z,98289.72
2022-12-12T08:44:19.214Z,98292.44
2022-12-12T08:46:49.092Z,98297.50
2022-12-12T08:49:18.461Z,98288.84
2022-12-12T08:51:47.246Z,98290.03
2022-12-12T08:54:16.159Z,98295.72
2022-12-12T08:56:46.362Z,98295.56
2022-12-12T08:59:15.479Z,98301.59
2022-12-12T09:01:44.417Z,98299.53
2022-12-12T09:04:13.272Z,98303.16
2022-12-12T09:06:42.285Z,98311.13
2022-12-12T09:09:11.205Z,98314.38
2022-12-12T09:11:39.935Z,98314.31
2022-12-12T09:14:10.934Z,98313.88
2022-12-12T09:16:40.022Z,98318.31
2022-12-12T09:19:08.791Z,98315.22
2022-12-12T09:21:37.552Z,98324.28
2022-12-12T09:24:06.857Z,98326.63
2022-12-12T09:26:35.784Z,98324.41
2022-12-12T09:29:06.124Z,98330.69
2022-12-12T09:31:36.368Z,98333.69
2022-12-12T09:34:05.193Z,98345.03
2022-12-12T09:36:34.007Z,98333.63
2022-12-12T09:39:02.777Z,98339.25
2022-12-12T09:41:32.067Z,98325.25
2022-12-12T09:44:04.937Z,98324.72
2022-12-12T09:46:41.557Z,98326.00
2022-12-12T09:49:18.459Z,98325.28
2022-12-12T09:51:50.969Z,98323.75
2022-12-12T09:54:23.878Z,98321.66
2022-12-12T09:57:17.353Z,98318.66
2022-12-12T09:59:54.897Z,98326.00
2022-12-12T10:02:53.905Z,98319.03
2022-12-12T10:05:35.931Z,98330.72
2022-12-12T10:08:16.373Z,98318.00
2022-12-12T10:10:49.460Z,98320.91
2022-12-12T10:13:23.345Z,98333.63
2022-12-12T10:15:58.553Z,98339.03
2022-12-12T10:18:35.634Z,98340.72
2022-12-12T10:21:15.031Z,98330.28
2022-12-12T10:23:51.467Z,98334.63
2022-12-12T10:31:36.777Z,98332.44
2022-12-12T10:34:32.415Z,98337.69
2022-12-12T10:37:18.565Z,98333.97
2022-12-12T10:39:59.596Z,98340.97
2022-12-12T10:42:38.477Z,98338.94
2022-12-12T10:45:51.687Z,98337.34
2022-12-12T10:51:30.925Z,98350.97
2022-12-12T10:53:58.400Z,98345.69
2022-12-12T10:56:29.039Z,98346.34
2022-12-12T10:58:59.487Z,98345.53
2022-12-12T11:02:08.271Z,98343.69
2022-12-12T11:04:21.988Z,98338.25
2022-12-12T11:06:54.278Z,98336.53
2022-12-12T11:14:34.384Z,98337.97
2022-12-12T11:17:02.659Z,98344.78
2022-12-12T11:19:38.819Z,98338.88
2022-12-12T11:22:06.553Z,98345.94
2022-12-12T11:24:41.354Z,98345.78
2022-12-12T11:27:21.028Z,98344.53
2022-12-12T11:29:54.196Z,98349.66
2022-12-12T11:32:28.165Z,98340.97
2022-12-12T11:35:01.096Z,98341.06
2022-12-12T11:37:46.479Z,98350.34
2022-12-12T11:40:25.852Z,98346.88
2022-12-12T11:43:17.604Z,98348.06
2022-12-12T11:46:05.462Z,98343.78
2022-12-12T11:48:43.983Z,98347.50
2022-12-12T11:51:13.329Z,98343.69
2022-12-12T11:53:46.365Z,98345.25
2022-12-12T11:56:43.085Z,98342.88
2022-12-12T11:59:43.775Z,98340.88
2022-12-12T12:02:55.079Z,98342.50
2022-12-12T12:05:33.344Z,98342.78
2022-12-12T12:08:27.303Z,98343.97
2022-12-12T12:11:14.917Z,98336.78
2022-12-12T12:14:11.287Z,98340.44
2022-12-12T12:16:54.099Z,98333.88
2022-12-12T12:19:37.318Z,98344.25
2022-12-12T12:22:19.989Z,98336.63
2022-12-12T12:25:20.695Z,98339.53
2022-12-12T12:28:05.901Z,98339.88
2022-12-12T12:30:46.398Z,98343.88
2022-12-12T12:33:39.904Z,98338.25
2022-12-12T12:36:21.475Z,98343.97
2022-12-12T12:39:14.247Z,98350.97
2022-12-12T12:42:18.489Z,98342.34
2022-12-12T12:44:56.514Z,98345.78
2022-12-12T12:47:37.029Z,98349.69
2022-12-12T12:50:18.879Z,98347.50
2022-12-12T12:52:58.259Z,98348.88
2022-12-12T12:55:36.604Z,98347.34
2022-12-12T12:58:16.517Z,98347.63
2022-12-12T13:00:45.453Z,98348.06
2022-12-12T13:03:22.657Z,98351.31
2022-12-12T13:05:56.765Z,98353.31
2022-12-12T13:08:39.910Z,98356.94
2022-12-12T13:11:16.059Z,98355.75
2022-12-12T13:13:49.693Z,98360.13
2022-12-12T13:16:23.870Z,98354.84
2022-12-12T13:19:08.573Z,98360.22
2022-12-12T13:21:47.851Z,98363.50
2022-12-12T13:24:29.007Z,98371.66
2022-12-12T13:27:07.425Z,98369.50
2022-12-12T13:29:45.832Z,98381.25
2022-12-12T13:33:06.693Z,98380.19
2022-12-12T13:35:44.304Z,98381.81
2022-12-12T13:38:23.368Z,98378.19
2022-12-12T13:41:03.174Z,98382.44
2022-12-12T13:43:45.898Z,98392.00
2022-12-12T13:46:41.867Z,98387.91
2022-12-12T13:49:31.564Z,98387.09
2022-12-12T13:52:23.975Z,98391.44
2022-12-12T13:54:57.351Z,98390.06
2022-12-12T13:57:34.460Z,98397.78
2022-12-12T14:00:21.387Z,98402.69
2022-12-12T14:03:10.349Z,98397.16
2022-12-12T14:05:42.435Z,98404.31
2022-12-12T14:08:28.607Z,98405.22
2022-12-12T14:11:04.641Z,98402.41
2022-12-12T14:13:43.602Z,98414.19
2022-12-12T14:16:28.221Z,98419.41
2022-12-12T14:19:09.095Z,98416.91
2022-12-12T14:21:56.164Z,98411.22
2022-12-12T14:25:08.117Z,98418.91
2022-12-12T14:28:17.848Z,98420.84
2022-12-12T14:31:09.713Z,98424.47
2022-12-12T14:34:06.508Z,98416.53
2022-12-12T14:37:33.729Z,98421.78
2022-12-12T14:40:14.500Z,98419.25
2022-12-12T14:43:19.479Z,98426.38
2022-12-12T14:45:58.369Z,98428.81
2022-12-12T14:48:30.228Z,98425.91
2022-12-12T14:51:09.420Z,98424.00
2022-12-12T14:53:50.104Z,98431.88
2022-12-12T14:56:23.063Z,98434.56
2022-12-12T14:59:02.887Z,98436.63
2022-12-12T15:01:37.423Z,98439.56
2022-12-12T15:04:10.860Z,98443.34
2022-12-12T15:06:41.554Z,98446.03
2022-12-12T15:09:25.716Z,98452.34
2022-12-12T15:11:57.301Z,98460.09
2022-12-12T15:14:29.019Z,98451.34
2022-12-12T15:17:06.922Z,98457.72
2022-12-12T15:19:42.207Z,98461.81
2022-12-12T15:22:17.405Z,98469.53
2022-12-12T15:24:46.491Z,98469.25
2022-12-12T15:27:24.712Z,98477.50
2022-12-12T15:29:53.744Z,98489.66
2022-12-12T15:32:26.841Z,98489.97
2022-12-12T15:35:06.751Z,98487.41
2022-12-12T15:37:38.569Z,98489.22
2022-12-12T15:45:28.628Z,98487.25
2022-12-12T15:47:56.840Z,98487.59
2022-12-12T15:50:30.326Z,98486.94
2022-12-12T15:56:00.570Z,98497.44
2022-12-12T15:58:33.924Z,98501.38
2022-12-12T16:01:08.334Z,98502.00
2022-12-12T16:04:01.551Z,98500.69
2022-12-12T16:06:33.508Z,98497.75
2022-12-12T16:09:08.771Z,98501.31
2022-12-12T16:11:51.203Z,98498.25
2022-12-12T16:14:39.714Z,98502.69
2022-12-12T16:17:14.386Z,98507.94
2022-12-12T16:19:49.821Z,98511.56
2022-12-12T16:22:36.343Z,98515.38
2022-12-12T16:25:19.608Z,98518.88
2022-12-12T16:27:57.832Z,98519.53
2022-12-12T16:30:28.568Z,98523.94
2022-12-12T16:32:57.733Z,98531.53
2022-12-12T16:35:26.984Z,98524.16
2022-12-12T16:37:58.116Z,98528.94
2022-12-12T16:40:26.865Z,98530.44
2022-12-12T16:43:09.403Z,98529.81
2022-12-12T16:45:40.077Z,98527.34
2022-12-12T16:48:16.764Z,98532.56
2022-12-12T16:50:49.377Z,98536.03
2022-12-12T16:53:25.689Z,98533.38
2022-12-12T16:55:57.997Z,98537.34
2022-12-12T16:58:28.550Z,98543.91
2022-12-12T17:00:59.357Z,98537.97
2022-12-12T17:03:28.588Z,98529.56
2022-12-12T17:05:58.070Z,98537.09
2022-12-12T17:08:27.910Z,98540.09
2022-12-12T17:11:10.132Z,98536.47
2022-12-12T17:13:48.249Z,98546.13
2022-12-12T17:16:19.376Z,98532.66
2022-12-12T17:18:51.768Z,98541.84
2022-12-12T17:21:21.033Z,98546.44
2022-12-12T17:23:50.482Z,98553.00
2022-12-12T17:26:19.463Z,98539.41
2022-12-12T17:28:49.727Z,98547.38
2022-12-12T17:31:18.533Z,98546.09
2022-12-12T17:33:50.930Z,98546.13
2022-12-12T17:36:20.577Z,98556.94
2022-12-12T17:38:50.014Z,98556.63
2022-12-12T17:41:36.146Z,98557.28
2022-12-12T17:44:06.880Z,98559.75
2022-12-12T17:46:36.049Z,98558.44
2022-12-12T17:49:05.262Z,98558.44
2022-12-12T17:51:35.589Z,98561.41
2022-12-12T17:54:06.678Z,98561.09
2022-12-12T17:56:36.060Z,98564.19
2022-12-12T17:59:10.197Z,98561.25
2022-12-12T18:01:40.436Z,98556.97
2022-12-12T18:04:09.912Z,98562.06
2022-12-12T18:06:39.897Z,98569.91
2022-12-12T18:09:08.822Z,98571.38
2022-12-12T18:11:42.350Z,98560.91
2022-12-12T18:14:18.652Z,98563.88
2022-12-12T18:16:51.417Z,98561.06
2022-12-12T18:19:21.149Z,98558.25
2022-12-12T18:22:00.768Z,98569.41
2022-12-12T18:24:39.734Z,98572.03
2022-12-12T18:27:10.298Z,98571.69
2022-12-12T18:29:43.232Z,98575.47
2022-12-12T18:32:12.985Z,98577.16
2022-12-12T18:34:43.971Z,98572.75
2022-12-12T18:37:17.299Z,98577.00
2022-12-12T18:39:46.588Z,98578.94
2022-12-12T18:42:15.825Z,98586.16
2022-12-12T18:44:46.275Z,98586.16
2022-12-12T18:47:15.157Z,98584.81
2022-12-12T18:49:43.935Z,98584.81
2022-12-12T18:52:13.657Z,98588.19
2022-12-12T18:54:42.434Z,98583.31
2022-12-12T18:57:12.045Z,98587.09
2022-12-12T18:59:41.479Z,98596.25
2022-12-12T19:02:14.878Z,98588.66
2022-12-12T19:04:44.872Z,98588.81
2022-12-12T19:07:14.125Z,98587.06
2022-12-12T19:09:46.887Z,98585.06
2022-12-12T19:12:16.017Z,98594.78
2022-12-12T19:15:15.359Z,98593.31
2022-12-12T19:17:36.120Z,98591.38
2022-12-12T19:20:06.016Z,98587.25
2022-12-12T19:22:51.264Z,98582.13
2022-12-12T19:25:24.080Z,98583.09
2022-12-12T19:27:53.066Z,98589.31
2022-12-12T19:30:22.275Z,98587.69
2022-12-12T19:32:52.478Z,98588.50
2022-12-12T19:35:21.778Z,98589.31
2022-12-12T19:37:51.102Z,98580.81
2022-12-12T19:40:20.159Z,98582.75
2022-12-12T19:42:49.107Z,98587.69
2022-12-12T19:45:18.151Z,98591.75
2022-12-12T19:47:47.189Z,98592.41
2022-12-12T19:50:17.761Z,98594.25
2022-12-12T19:52:46.749Z,98593.91
2022-12-12T19:55:16.592Z,98592.75
2022-12-12T19:57:46.137Z,98594.91
2022-12-12T20:00:19.924Z,98594.22
2022-12-12T20:02:49.065Z,98598.31
2022-12-12T20:05:19.770Z,98602.91
2022-12-12T21:13:44.162Z,98601.34
2022-12-12T21:16:14.436Z,98611.34
2022-12-12T21:18:42.234Z,98605.31
2022-12-12T21:21:12.910Z,98607.94
2022-12-12T21:23:43.553Z,98607.00
2022-12-12T21:26:20.508Z,98610.09
2022-12-12T21:28:53.279Z,98612.03
2022-12-12T21:31:24.845Z,98615.03
2022-12-12T21:33:58.939Z,98615.53
2022-12-12T21:36:30.100Z,98623.53
2022-12-12T21:39:01.539Z,98627.00
2022-12-12T21:41:30.729Z,98625.50
2022-12-12T21:44:01.016Z,98626.81
2022-12-12T21:46:31.177Z,98623.69
2022-12-12T21:49:17.780Z,98621.69
2022-12-12T21:51:47.563Z,98612.66
2022-12-12T21:54:17.078Z,98616.84
2022-12-12T21:56:46.698Z,98616.16
2022-12-12T21:59:17.332Z,98624.69
2022-12-12T22:01:46.376Z,98626.19
2022-12-12T22:04:17.789Z,98632.88
2022-12-12T22:06:47.436Z,98621.88
2022-12-12T22:09:16.535Z,98631.56
2022-12-12T22:11:49.972Z,98627.81
2022-12-12T22:14:22.686Z,98632.38
2022-12-12T22:16:51.616Z,98625.19
2022-12-12T22:19:20.606Z,98620.25
2022-12-12T22:21:50.048Z,98615.34
2022-12-12T22:24:20.069Z,98610.91
2022-12-12T22:26:50.885Z,98610.53
2022-12-12T22:29:21.879Z,98606.66
2022-12-12T22:31:52.386Z,98610.09
2022-12-12T22:34:24.547Z,98608.91
2022-12-12T22:36:55.189Z,98611.34
2022-12-12T22:39:28.448Z,98609.41
2022-12-12T22:41:57.920Z,98608.41
2022-12-12T22:44:29.914Z,98609.03
2022-12-12T22:46:59.279Z,98607.41
2022-12-12T22:49:28.592Z,98614.31
2022-12-12T22:51:59.397Z,98609.03
2022-12-12T22:54:28.838Z,98609.41
2022-12-12T22:56:57.761Z,98608.09
2022-12-12T22:59:28.254Z,98600.53
2022-12-12T23:01:57.069Z,98606.78
2022-12-12T23:04:26.021Z,98614.66
2022-12-12T23:06:55.024Z,98611.34
2022-12-12T23:09:27.024Z,98613.00
2022-12-12T23:11:56.447Z,98611.34
2022-12-12T23:14:28.513Z,98607.72
2022-12-12T23:16:57.454Z,98607.72
2022-12-12T23:19:29.142Z,98616.34
2022-12-12T23:21:58.653Z,98604.84
2022-12-12T23:24:27.483Z,98601.88
2022-12-12T23:26:56.393Z,98610.41
2022-12-12T23:29:28.332Z,98606.16
2022-12-12T23:31:58.769Z,98608.78
2022-12-12T23:34:27.746Z,98606.78
2022-12-12T23:36:57.383Z,98610.75
2022-12-12T23:39:28.373Z,98607.94
2022-12-12T23:41:57.782Z,98605.50
2022-12-12T23:44:28.279Z,98602.88
2022-12-12T23:46:58.322Z,98607.81
2022-12-12T23:49:32.570Z,98608.47
2022-12-12T23:52:02.696Z,98601.56
2022-12-12T23:54:34.955Z,98606.19
2022-12-12T23:57:04.851Z,98603.56
2022-12-12T23:59:34.998Z,98601.75
